createdAt,value
2017-11-13T00:02:54.092Z,0.0
2017-11-13T00:13:05.623Z,0.0
2017-11-13T00:34:41.402Z,0.0
2017-11-13T00:46:40.677Z,0.0
2017-11-13T00:57:25.500Z,0.0
2017-11-13T01:07:37.523Z,0.0
2017-11-13T01:18:22.676Z,0.0
2017-11-13T01:28:36.282Z,0.0
2017-11-13T01:39:05.752Z,0.0
2017-11-13T01:50:04.247Z,0.0
2017-11-13T02:00:16.117Z,0.0
2017-11-13T02:23:13.472Z,0.0
2017-11-13T02:33:25.674Z,0.0
2017-11-13T02:44:13.019Z,0.0
2017-11-13T02:54:58.358Z,0.0
2017-11-13T03:05:44.046Z,0.0
2017-11-13T03:16:14.286Z,0.0
2017-11-13T03:26:28.572Z,0.0
2017-11-13T03:36:58.405Z,0.0
2017-11-13T03:47:12.431Z,0.0
2017-11-13T03:57:25.433Z,0.0
2017-11-13T04:07:39.898Z,0.0
2017-11-13T04:17:54.125Z,0.0
2017-11-13T04:28:06.890Z,0.0
2017-11-13T04:38:53.054Z,0.0
2017-11-13T04:49:04.823Z,0.0
2017-11-13T05:00:07.342Z,0.0
2017-11-13T05:10:21.358Z,0.0
2017-11-13T05:20:35.510Z,0.0
2017-11-13T05:30:46.767Z,0.0
2017-11-13T05:41:32.808Z,0.0
2017-11-13T05:52:19.281Z,0.0
2017-11-13T06:03:04.948Z,0.0
2017-11-13T06:13:49.746Z,0.0
2017-11-13T06:24:01.924Z,4.0
2017-11-13T06:34:58.988Z,44.0
2017-11-13T06:45:26.521Z,112.0
2017-11-13T06:55:44.595Z,332.0
2017-11-13T07:05:55.915Z,632.0
2017-11-13T07:16:07.321Z,1088.0
2017-11-13T07:26:19.575Z,1772.0
2017-11-13T07:37:21.565Z,2060.0
2017-11-13T07:47:37.383Z,8964.0
2017-11-13T07:57:49.548Z,7704.0
2017-11-13T08:08:34.852Z,4660.0
2017-11-13T08:19:47.260Z,4884.0
2017-11-13T08:32:18.959Z,3232.0
2017-11-13T08:42:32.879Z,4472.0
2017-11-13T08:53:18.352Z,4868.0
2017-11-13T09:03:33.017Z,5112.0
2017-11-13T09:13:47.077Z,5724.0
2017-11-13T09:23:59.118Z,6372.0
2017-11-13T09:34:13.324Z,8580.0
2017-11-13T09:44:58.126Z,6532.0
2017-11-13T09:55:16.715Z,7116.0
2017-11-13T10:05:31.074Z,7784.0
2017-11-13T10:15:45.137Z,8004.0
2017-11-13T10:25:56.478Z,10424.0
2017-11-13T10:36:08.715Z,72352.0
2017-11-13T10:46:23.799Z,13924.0
2017-11-13T10:56:36.169Z,64384.0
2017-11-13T11:06:51.173Z,36800.0
2017-11-13T11:17:05.872Z,69792.0
2017-11-13T11:27:20.372Z,79360.0
2017-11-13T11:37:32.460Z,78048.0
2017-11-13T11:47:44.752Z,78464.0
2017-11-13T11:57:58.832Z,68160.0
2017-11-13T12:08:21.920Z,42944.0
2017-11-13T12:18:45.985Z,67200.0
2017-11-13T12:29:01.705Z,54048.0
2017-11-13T12:39:17.369Z,36544.0
2017-11-13T12:49:42.194Z,43840.0
2017-11-13T12:59:55.658Z,66272.0
2017-11-13T13:10:41.089Z,61056.0
2017-11-13T13:21:40.354Z,55392.0
2017-11-13T13:31:54.495Z,58112.0
2017-11-13T13:42:09.113Z,53824.0
2017-11-13T13:52:22.859Z,51584.0
2017-11-13T14:02:35.736Z,40704.0
2017-11-13T14:12:55.240Z,37152.0
2017-11-13T14:23:08.330Z,35328.0
2017-11-13T14:33:20.822Z,18176.0
2017-11-13T14:43:42.715Z,9128.0
2017-11-13T14:54:04.964Z,5404.0
2017-11-13T15:04:19.989Z,2156.0
2017-11-13T15:14:32.393Z,1388.0
2017-11-13T15:25:19.429Z,860.0
2017-11-13T15:35:33.715Z,460.0
2017-11-13T15:45:47.764Z,204.0
2017-11-13T15:55:59.200Z,60.0
2017-11-13T16:06:12.923Z,12.0
2017-11-13T16:16:58.886Z,4.0
2017-11-13T16:27:43.831Z,0.0
2017-11-13T16:38:29.818Z,0.0
2017-11-13T16:48:47.963Z,0.0
2017-11-13T16:59:32.782Z,0.0
2017-11-13T17:10:36.930Z,0.0
2017-11-13T17:20:51.540Z,0.0
2017-11-13T17:31:08.672Z,0.0
2017-11-13T17:41:49.663Z,0.0
2017-11-13T17:53:43.055Z,0.0
2017-11-13T18:04:28.586Z,0.0
2017-11-13T18:14:40.144Z,0.0
2017-11-13T18:24:53.175Z,0.0
2017-11-13T18:35:55.524Z,0.0
2017-11-13T18:46:09.553Z,0.0
2017-11-13T18:56:23.705Z,0.0
2017-11-13T19:07:08.776Z,0.0
2017-11-13T19:17:50.795Z,0.0
2017-11-13T19:28:38.767Z,0.0
2017-11-13T19:38:51.263Z,0.0
2017-11-13T19:49:11.329Z,0.0
2017-11-13T19:59:29.063Z,0.0
2017-11-13T20:09:43.298Z,0.0
2017-11-13T20:19:59.375Z,0.0
2017-11-13T20:30:14.022Z,0.0
2017-11-13T20:40:59.310Z,0.0
2017-11-13T20:52:15.380Z,0.0
2017-11-13T21:02:29.211Z,0.0
2017-11-13T21:12:43.724Z,0.0
2017-11-13T21:22:58.681Z,0.0
2017-11-13T21:33:13.161Z,0.0
2017-11-13T21:43:48.085Z,0.0
2017-11-13T21:54:02.380Z,0.0
2017-11-13T22:04:13.724Z,0.0
2017-11-13T22:14:27.798Z,0.0
2017-11-13T22:25:30.332Z,0.0
2017-11-13T22:36:58.186Z,0.0
2017-11-13T22:47:12.503Z,0.0
2017-11-13T22:57:26.204Z,0.0
2017-11-13T23:07:39.681Z,0.0
2017-11-13T23:17:54.855Z,0.0
2017-11-13T23:28:08.241Z,0.0
2017-11-13T23:38:19.424Z,0.0
2017-11-13T23:48:33.816Z,0.0
2017-11-13T23:58:48.940Z,0.0
